Time;durP1;ratioP1;P1;durP2;ratioP2;P2;SDS_P1;SDS_P2;PMS_P1;PMS_P2;Temp;Humidity;BMP_temperature;BMP_pressure;BME280_temperature;BME280_humidity;BME280_pressure;Samples;Min_cycle;Max_cycle;Signal;HPM_P1;HPM_P2
2021/11/22 00:00:21;;;;;;;33.17;13.43;;;1.80;99.90;;;;;;6047649;23;20011;-80
2021/11/22 00:02:50;;;;;;;28.63;14.30;;;1.70;99.90;;;;;;6040679;23;20026;-80
2021/11/22 00:05:18;;;;;;;32.10;16.95;;;1.80;99.90;;;;;;6012507;23;20035;-80
2021/11/22 00:07:46;;;;;;;26.10;13.52;;;1.70;99.90;;;;;;6037385;23;20027;-80
2021/11/22 00:10:15;;;;;;;36.03;14.52;;;1.70;99.90;;;;;;6042721;23;20027;-80
2021/11/22 00:12:43;;;;;;;29.80;13.80;;;1.70;99.90;;;;;;6021379;23;20023;-80
2021/11/22 00:15:13;;;;;;;32.35;17.67;;;1.80;99.90;;;;;;6012315;23;20023;-80
2021/11/22 00:17:42;;;;;;;37.42;13.85;;;1.70;99.90;;;;;;6020122;23;20335;-80
2021/11/22 00:20:12;;;;;;;33.35;16.05;;;1.70;99.90;;;;;;6047515;23;20019;-80
2021/11/22 00:22:43;;;;;;;33.58;15.55;;;1.70;99.90;;;;;;6016668;23;20023;-80
2021/11/22 00:25:12;;;;;;;32.30;12.80;;;1.70;99.90;;;;;;6046995;23;20018;-80
2021/11/22 00:27:40;;;;;;;28.65;13.82;;;1.90;99.90;;;;;;6037578;23;20019;-80
2021/11/22 00:30:28;;;;;;;38.90;13.93;;;1.80;99.90;;;;;;6036231;23;20051;-80
2021/11/22 00:33:01;;;;;;;31.40;17.05;;;1.80;99.90;;;;;;6022003;23;20018;-80
2021/11/22 00:36:08;;;;;;;31.30;13.13;;;1.70;99.90;;;;;;5980930;23;20036;-80
2021/11/22 00:38:35;;;;;;;35.95;17.95;;;1.70;99.90;;;;;;6012329;23;20118;-80
2021/11/22 00:41:03;;;;;;;28.88;14.55;;;1.80;99.90;;;;;;6018372;23;20019;-80
2021/11/22 00:43:31;;;;;;;23.13;9.93;;;1.80;99.90;;;;;;5984603;23;20035;-80
2021/11/22 00:45:59;;;;;;;29.65;16.63;;;1.80;99.90;;;;;;6015146;23;20027;-80
2021/11/22 00:48:26;;;;;;;26.73;13.13;;;1.80;99.90;;;;;;6018424;23;20313;-80
2021/11/22 00:50:55;;;;;;;19.20;10.50;;;1.80;99.90;;;;;;6009869;23;20031;-80
2021/11/22 00:53:23;;;;;;;28.95;11.88;;;1.80;99.90;;;;;;6017300;23;20026;-80
2021/11/22 00:55:51;;;;;;;37.70;15.25;;;1.90;99.90;;;;;;6018090;23;20023;-80
2021/11/22 00:58:19;;;;;;;33.50;15.50;;;1.90;99.90;;;;;;5989680;23;20027;-80
2021/11/22 01:00:49;;;;;;;30.35;13.02;;;1.90;99.90;;;;;;6018474;23;20016;-81
2021/11/22 01:03:17;;;;;;;38.30;14.70;;;1.90;99.90;;;;;;5985411;23;20030;-80
2021/11/22 01:05:45;;;;;;;29.55;17.38;;;1.90;99.90;;;;;;5991490;23;20019;-80
2021/11/22 01:08:13;;;;;;;35.47;13.05;;;2.00;99.90;;;;;;5992898;23;20035;-80
2021/11/22 01:10:41;;;;;;;22.67;11.73;;;2.00;99.90;;;;;;6011970;23;20031;-80
2021/11/22 01:13:09;;;;;;;26.77;12.18;;;2.00;99.90;;;;;;6015507;23;20034;-80
2021/11/22 01:15:37;;;;;;;28.80;12.40;;;2.00;99.90;;;;;;6006616;23;20031;-80
2021/11/22 01:18:05;;;;;;;24.67;12.88;;;2.00;99.90;;;;;;5989995;23;20027;-80
2021/11/22 01:20:33;;;;;;;30.63;13.82;;;2.00;99.90;;;;;;5993200;23;20023;-80
2021/11/22 01:23:13;;;;;;;20.52;10.50;;;2.10;99.90;;;;;;6010774;23;20032;-80
2021/11/22 01:25:43;;;;;;;19.67;10.68;;;2.00;99.90;;;;;;5991734;23;20012;-80
2021/11/22 01:28:12;;;;;;;20.67;10.02;;;2.00;99.90;;;;;;5993498;23;20016;-83
2021/11/22 01:30:40;;;;;;;24.92;13.68;;;2.00;99.90;;;;;;5959730;23;20024;-80
2021/11/22 01:33:08;;;;;;;17.38;10.93;;;2.00;99.90;;;;;;5993310;23;20651;-78
2021/11/22 01:35:37;;;;;;;20.27;9.63;;;2.00;99.90;;;;;;6008928;23;20032;-78
2021/11/22 01:38:06;;;;;;;21.83;10.45;;;1.90;99.90;;;;;;6006584;23;20024;-81
2021/11/22 01:40:34;;;;;;;20.77;10.45;;;1.90;99.90;;;;;;6018014;23;20016;-81
2021/11/22 01:43:02;;;;;;;20.50;11.00;;;2.00;99.90;;;;;;6010849;23;20601;-81
2021/11/22 01:45:33;;;;;;;22.73;10.38;;;2.00;99.90;;;;;;6017065;23;20015;-81
2021/11/22 01:48:01;;;;;;;25.15;12.85;;;2.20;99.90;;;;;;6017973;23;20467;-81
2021/11/22 01:50:29;;;;;;;26.10;14.07;;;2.10;99.90;;;;;;5982779;23;20352;-81
2021/11/22 01:52:57;;;;;;;14.48;7.78;;;2.00;99.90;;;;;;5992856;23;20027;-81
2021/11/22 01:55:27;;;;;;;26.95;13.93;;;2.20;99.90;;;;;;5983115;23;20023;-81
2021/11/22 01:57:56;;;;;;;18.48;11.30;;;2.10;99.90;;;;;;6013648;23;20037;-81
2021/11/22 02:00:31;;;;;;;27.83;12.35;;;2.10;99.90;;;;;;5993470;23;20462;-81
2021/11/22 02:03:00;;;;;;;20.23;11.05;;;2.20;99.90;;;;;;5986356;23;20035;-81
2021/11/22 02:05:28;;;;;;;29.10;12.88;;;2.20;99.90;;;;;;5960338;23;20474;-81
2021/11/22 02:07:56;;;;;;;28.98;13.93;;;2.20;99.90;;;;;;6017195;23;20016;-81
2021/11/22 02:10:25;;;;;;;15.65;11.82;;;2.10;99.90;;;;;;6013035;23;20607;-81
2021/11/22 02:12:53;;;;;;;19.45;11.77;;;2.20;99.90;;;;;;6007218;23;20328;-81
2021/11/22 02:15:21;;;;;;;24.95;14.27;;;2.10;99.90;;;;;;5983455;23;20020;-81
2021/11/22 02:17:51;;;;;;;22.42;11.68;;;2.30;99.90;;;;;;5983084;23;20074;-81
2021/11/22 02:20:24;;;;;;;29.35;16.27;;;2.30;99.90;;;;;;6016172;23;20020;-81
2021/11/22 02:22:56;;;;;;;27.05;15.18;;;2.30;99.90;;;;;;5985660;23;20036;-81
2021/11/22 02:25:26;;;;;;;24.77;11.02;;;2.40;99.90;;;;;;5983166;23;20020;-81
2021/11/22 02:27:54;;;;;;;21.10;10.75;;;2.30;99.90;;;;;;6018007;23;20026;-81
2021/11/22 02:30:29;;;;;;;21.48;12.68;;;2.20;99.90;;;;;;5988822;23;20032;-81
2021/11/22 02:33:01;;;;;;;23.27;11.75;;;2.20;99.90;;;;;;5993187;23;20591;-81
2021/11/22 02:35:31;;;;;;;17.30;8.80;;;2.20;99.90;;;;;;6008289;23;20087;-81
2021/11/22 02:38:21;;;;;;;25.65;12.40;;;2.10;99.90;;;;;;6012080;23;20384;-81
2021/11/22 02:40:49;;;;;;;20.02;11.80;;;2.20;99.90;;;;;;6018080;23;20115;-81
2021/11/22 02:43:17;;;;;;;21.00;10.82;;;2.20;99.90;;;;;;6010323;23;20031;-80
2021/11/22 02:45:46;;;;;;;22.23;10.30;;;2.20;99.90;;;;;;6016048;23;20028;-81
2021/11/22 02:48:16;;;;;;;22.13;10.83;;;2.20;99.90;;;;;;6017919;23;20038;-81
2021/11/22 02:50:45;;;;;;;21.77;10.27;;;2.20;99.90;;;;;;5986801;23;20448;-81
2021/11/22 02:53:16;;;;;;;25.17;15.20;;;2.30;99.90;;;;;;6017096;23;20016;-81
2021/11/22 02:55:47;;;;;;;18.35;10.68;;;2.20;99.90;;;;;;6008366;23;20044;-81
2021/11/22 02:58:15;;;;;;;22.85;12.75;;;2.20;99.90;;;;;;6012161;23;20024;-80
2021/11/22 03:00:43;;;;;;;24.20;12.35;;;2.30;99.90;;;;;;5993329;23;20444;-81
2021/11/22 03:03:11;;;;;;;23.73;11.75;;;2.20;99.90;;;;;;6010855;23;20086;-81
2021/11/22 03:05:39;;;;;;;21.83;12.10;;;2.20;99.90;;;;;;6016445;23;20024;-80
2021/11/22 03:08:06;;;;;;;24.08;11.25;;;2.20;99.90;;;;;;6017377;23;20016;-80
2021/11/22 03:10:34;;;;;;;20.38;9.48;;;2.20;99.90;;;;;;6012344;23;20020;-81
2021/11/22 03:13:02;;;;;;;21.98;9.90;;;2.20;99.90;;;;;;6015248;23;20023;-80
2021/11/22 03:15:31;;;;;;;23.80;11.50;;;2.20;99.90;;;;;;6009381;23;20028;-81
2021/11/22 03:17:58;;;;;;;24.80;11.73;;;2.20;99.90;;;;;;6014807;23;20028;-81
2021/11/22 03:20:26;;;;;;;17.85;10.65;;;2.20;99.90;;;;;;6019105;23;20019;-81
2021/11/22 03:22:54;;;;;;;22.65;9.77;;;2.20;99.90;;;;;;6012843;23;20500;-81
2021/11/22 03:25:22;;;;;;;19.88;11.50;;;2.20;99.90;;;;;;6019454;23;20017;-81
2021/11/22 03:27:50;;;;;;;19.05;11.75;;;2.30;99.90;;;;;;6037720;23;20034;-81
2021/11/22 03:30:19;;;;;;;19.55;12.52;;;2.20;99.90;;;;;;6043608;23;20031;-80
2021/11/22 03:32:47;;;;;;;20.80;8.15;;;2.20;99.90;;;;;;6023097;23;20019;-80
2021/11/22 03:35:15;;;;;;;21.50;12.68;;;2.20;99.90;;;;;;6039977;23;20039;-81
2021/11/22 03:37:43;;;;;;;20.98;12.30;;;2.20;99.90;;;;;;6045862;23;20466;-80
2021/11/22 03:40:11;;;;;;;16.02;11.25;;;2.30;99.90;;;;;;6047352;23;20015;-80
2021/11/22 03:42:54;;;;;;;27.35;13.38;;;2.20;99.90;;;;;;6059211;23;20466;-81
2021/11/22 03:45:21;;;;;;;16.52;11.43;;;2.20;99.90;;;;;;6022094;23;20016;-81
2021/11/22 03:47:49;;;;;;;18.73;9.13;;;2.20;99.90;;;;;;5994248;23;20022;-80
2021/11/22 03:50:17;;;;;;;16.02;9.45;;;2.20;99.90;;;;;;6014811;23;20038;-80
2021/11/22 03:52:45;;;;;;;20.73;11.68;;;2.20;99.90;;;;;;6019527;23;20022;-81
2021/11/22 03:55:12;;;;;;;17.80;10.82;;;2.20;99.90;;;;;;6011282;23;20031;-80
2021/11/22 03:57:40;;;;;;;20.55;11.00;;;2.10;99.90;;;;;;5984808;23;20016;-80
2021/11/22 04:00:09;;;;;;;25.20;10.05;;;2.20;99.90;;;;;;6008485;23;20452;-81
2021/11/22 04:02:37;;;;;;;17.35;9.52;;;2.20;99.90;;;;;;6012337;23;20028;-80
2021/11/22 04:05:05;;;;;;;21.45;13.65;;;2.30;99.90;;;;;;6019122;23;20020;-80
2021/11/22 04:07:34;;;;;;;21.67;10.10;;;2.20;99.90;;;;;;6010060;23;20039;-80
2021/11/22 04:10:02;;;;;;;21.60;12.02;;;2.30;99.90;;;;;;6014803;23;20028;-80
2021/11/22 04:12:30;;;;;;;24.98;13.05;;;2.20;99.90;;;;;;6040299;23;20342;-80
2021/11/22 04:14:58;;;;;;;21.33;13.10;;;2.20;99.90;;;;;;6012584;23;20024;-80
2021/11/22 04:17:47;;;;;;;18.13;8.88;;;2.30;99.90;;;;;;6018288;23;20019;-81
2021/11/22 04:21:15;;;;;;;20.95;11.45;;;2.20;99.90;;;;;;6017959;23;20016;-80
2021/11/22 04:24:31;;;;;;;27.35;9.30;;;2.20;99.90;;;;;;6022679;23;20030;-80
2021/11/22 04:28:11;;;;;;;17.88;11.65;;;2.20;99.90;;;;;;6037128;23;20023;-80
2021/11/22 04:31:25;;;;;;;;;;;2.10;99.90;;;;;;6039428;23;20031;-80
2021/11/22 04:34:49;;;;;;;19.95;9.40;;;2.10;99.90;;;;;;6042060;23;20245;-80
2021/11/22 04:38:02;;;;;;;20.27;8.43;;;2.20;99.90;;;;;;6044359;23;20027;-80
2021/11/22 04:41:16;;;;;;;21.23;11.13;;;2.10;99.90;;;;;;6024204;23;20019;-80
2021/11/22 04:44:02;;;;;;;18.40;10.40;;;2.10;99.90;;;;;;6019437;23;20027;-80
2021/11/22 04:46:31;;;;;;;17.92;9.88;;;2.10;99.90;;;;;;6041721;23;20023;-80
2021/11/22 04:48:59;;;;;;;26.70;12.30;;;2.20;99.90;;;;;;6047222;23;20105;-80
2021/11/22 04:51:27;;;;;;;23.75;12.88;;;2.20;99.90;;;;;;6038217;23;20050;-80
2021/11/22 04:53:55;;;;;;;15.23;8.73;;;2.20;99.90;;;;;;6043889;23;20023;-80
2021/11/22 04:56:31;;;;;;;14.23;9.07;;;2.20;99.90;;;;;;6047040;23;20018;-80
2021/11/22 04:58:58;;;;;;;19.10;11.05;;;2.20;99.90;;;;;;6021334;23;20455;-80
2021/11/22 05:01:26;;;;;;;13.02;8.75;;;2.30;99.90;;;;;;6017414;23;20023;-81
2021/11/22 05:03:54;;;;;;;20.52;12.15;;;2.10;99.90;;;;;;6017413;23;20019;-80
2021/11/22 05:06:22;;;;;;;20.27;10.07;;;2.20;99.90;;;;;;6014288;23;20031;-80
2021/11/22 05:08:49;;;;;;;23.20;11.75;;;2.30;99.90;;;;;;6018043;23;20032;-80
2021/11/22 05:11:17;;;;;;;19.90;10.18;;;2.30;99.90;;;;;;6011072;23;20028;-81
2021/11/22 05:13:45;;;;;;;17.92;8.57;;;2.30;99.90;;;;;;6012952;23;20020;-80
2021/11/22 05:16:29;;;;;;;15.50;9.23;;;2.30;99.90;;;;;;6018810;23;20034;-80
2021/11/22 05:19:45;;;;;;;15.25;7.85;;;2.40;99.90;;;;;;5957860;23;20043;-81
2021/11/22 05:22:39;;;;;;;15.52;9.07;;;2.40;99.90;;;;;;6011495;23;20027;-80
2021/11/22 05:25:09;;;;;;;14.85;11.90;;;2.40;99.90;;;;;;6018018;23;20321;-80
2021/11/22 05:27:37;;;;;;;16.83;10.10;;;2.30;99.90;;;;;;5983407;23;20024;-80
2021/11/22 05:30:05;;;;;;;18.45;10.18;;;2.30;99.90;;;;;;5960644;23;20038;-80
2021/11/22 05:32:33;;;;;;;24.90;10.30;;;2.30;99.90;;;;;;6017127;23;20020;-80
2021/11/22 05:35:04;;;;;;;22.52;7.32;;;2.30;99.90;;;;;;6011262;23;20055;-80
2021/11/22 05:37:34;;;;;;;17.50;11.85;;;2.30;99.90;;;;;;6015992;23;20344;-81
2021/11/22 05:40:03;;;;;;;20.35;9.90;;;2.30;99.90;;;;;;6006771;23;20344;-80
2021/11/22 05:42:31;;;;;;;17.90;9.70;;;2.30;99.90;;;;;;5988574;23;20028;-79
2021/11/22 05:44:59;;;;;;;15.20;9.93;;;2.40;99.90;;;;;;6016705;23;20039;-80
2021/11/22 05:47:28;;;;;;;16.25;9.98;;;2.50;99.90;;;;;;6031459;23;20028;-81
2021/11/22 05:50:03;;;;;;;20.25;9.70;;;2.50;99.90;;;;;;6006142;23;20027;-80
2021/11/22 05:52:32;;;;;;;19.58;9.73;;;2.40;99.90;;;;;;6018147;23;20336;-81
2021/11/22 05:55:02;;;;;;;19.00;11.02;;;2.30;99.90;;;;;;6010879;23;20024;-80
2021/11/22 05:57:30;;;;;;;17.83;9.43;;;2.40;99.90;;;;;;6016726;23;20015;-80
2021/11/22 05:59:58;;;;;;;14.77;8.13;;;2.40;99.90;;;;;;6018002;23;20019;-79
2021/11/22 06:02:25;;;;;;;17.83;10.18;;;2.40;99.90;;;;;;6011860;23;20027;-80
2021/11/22 06:04:53;;;;;;;16.42;8.50;;;2.40;99.90;;;;;;6018064;23;20435;-80
2021/11/22 06:07:21;;;;;;;15.65;9.35;;;2.50;99.90;;;;;;6009903;23;20463;-80
2021/11/22 06:09:49;;;;;;;19.38;12.85;;;2.50;99.90;;;;;;5981515;23;20337;-80
2021/11/22 06:12:16;;;;;;;21.33;9.82;;;2.40;99.90;;;;;;5983532;23;20023;-80
2021/11/22 06:14:44;;;;;;;20.63;9.05;;;2.50;99.90;;;;;;6024655;23;20019;-80
2021/11/22 06:17:12;;;;;;;13.73;10.30;;;2.50;99.90;;;;;;6012031;23;20015;-80
2021/11/22 06:19:40;;;;;;;15.48;9.05;;;2.40;99.90;;;;;;6036485;23;20366;-80
2021/11/22 06:22:08;;;;;;;15.05;10.35;;;2.50;99.90;;;;;;6017366;23;20034;-79
2021/11/22 06:24:35;;;;;;;24.88;11.63;;;2.50;99.90;;;;;;6045475;23;20065;-80
2021/11/22 06:27:03;;;;;;;17.70;8.43;;;2.50;99.90;;;;;;6035003;23;20031;-80
2021/11/22 06:29:32;;;;;;;23.27;11.15;;;2.50;99.90;;;;;;6041441;23;20022;-80
2021/11/22 06:31:59;;;;;;;14.90;9.10;;;2.50;99.90;;;;;;6039696;23;20020;-80
2021/11/22 06:34:27;;;;;;;16.48;7.95;;;2.50;99.90;;;;;;6018515;23;20031;-81
2021/11/22 06:36:55;;;;;;;17.60;9.63;;;2.60;99.90;;;;;;6035302;23;20026;-81
2021/11/22 06:39:22;;;;;;;18.63;10.82;;;2.50;99.90;;;;;;6011759;23;20028;-81
2021/11/22 06:41:50;;;;;;;21.20;9.07;;;2.40;99.90;;;;;;5995117;23;20031;-82
2021/11/22 06:44:20;;;;;;;18.02;11.45;;;2.40;99.90;;;;;;6011727;23;20023;-82
2021/11/22 06:46:49;;;;;;;14.40;7.95;;;2.50;99.90;;;;;;5987224;23;20027;-80
2021/11/22 06:49:19;;;;;;;15.98;9.40;;;2.40;99.90;;;;;;6045805;23;20549;-80
2021/11/22 06:51:48;;;;;;;14.98;7.45;;;2.50;99.90;;;;;;6010851;23;20027;-80
2021/11/22 06:54:16;;;;;;;15.13;9.18;;;2.50;99.90;;;;;;6042101;23;20028;-81
2021/11/22 06:56:44;;;;;;;16.83;9.95;;;2.40;99.90;;;;;;6048012;23;20018;-80
2021/11/22 06:59:12;;;;;;;19.98;9.90;;;2.50;99.90;;;;;;6040294;23;20030;-80
2021/11/22 07:01:40;;;;;;;21.75;10.57;;;2.60;99.90;;;;;;6045899;23;20022;-80
2021/11/22 07:04:08;;;;;;;13.00;9.25;;;2.50;99.90;;;;;;6022614;23;20030;-80
2021/11/22 07:06:36;;;;;;;16.13;11.02;;;2.50;99.90;;;;;;6017337;23;20464;-80
2021/11/22 07:09:04;;;;;;;17.20;11.45;;;2.70;99.90;;;;;;6047324;23;20435;-80
2021/11/22 07:11:32;;;;;;;17.13;8.88;;;2.60;99.90;;;;;;6039135;23;20058;-80
2021/11/22 07:14:02;;;;;;;18.48;9.65;;;2.60;99.90;;;;;;6041093;23;20355;-80
2021/11/22 07:16:32;;;;;;;16.08;8.40;;;2.60;99.90;;;;;;6046851;23;20347;-80
2021/11/22 07:19:00;;;;;;;22.02;13.45;;;2.60;99.90;;;;;;6040765;23;20039;-80
2021/11/22 07:21:28;;;;;;;15.85;9.25;;;2.60;99.90;;;;;;6046620;23;20019;-79
2021/11/22 07:23:57;;;;;;;28.65;13.73;;;2.50;99.90;;;;;;6020667;23;20019;-80
2021/11/22 07:26:25;;;;;;;17.00;9.32;;;2.60;99.90;;;;;;6043070;23;20035;-80
2021/11/22 07:28:53;;;;;;;20.60;9.45;;;2.70;99.90;;;;;;6022660;23;20443;-81
2021/11/22 07:31:21;;;;;;;18.85;12.07;;;2.60;99.90;;;;;;6038648;23;20474;-80
2021/11/22 07:33:49;;;;;;;17.40;9.77;;;2.70;99.90;;;;;;6011936;23;20442;-80
2021/11/22 07:36:16;;;;;;;20.17;10.27;;;2.70;99.90;;;;;;6047650;23;20015;-80
2021/11/22 07:38:44;;;;;;;17.13;10.90;;;2.80;99.90;;;;;;6040831;23;20477;-80
2021/11/22 07:41:12;;;;;;;15.27;10.43;;;2.70;99.90;;;;;;6047458;23;20019;-80
2021/11/22 07:43:40;;;;;;;20.77;7.63;;;2.70;99.90;;;;;;6012472;23;20027;-80
2021/11/22 07:46:08;;;;;;;15.95;9.05;;;2.70;99.90;;;;;;6043811;23;20023;-80
2021/11/22 07:48:36;;;;;;;18.13;7.93;;;2.70;99.90;;;;;;6047505;23;20012;-78
2021/11/22 07:51:04;;;;;;;16.52;10.73;;;2.80;99.90;;;;;;6039859;23;20023;-78
2021/11/22 07:53:36;;;;;;;16.60;10.32;;;2.70;99.90;;;;;;6045392;23;20019;-78
2021/11/22 07:56:05;;;;;;;18.98;8.52;;;2.80;99.90;;;;;;6047144;23;20387;-79
2021/11/22 07:58:33;;;;;;;17.98;9.68;;;2.70;99.90;;;;;;6042303;23;20031;-79
2021/11/22 08:01:04;;;;;;;19.58;9.13;;;2.80;99.90;;;;;;6044232;23;20336;-78
2021/11/22 08:03:49;;;;;;;16.58;9.82;;;2.70;99.90;;;;;;6034306;23;20463;-83
2021/11/22 08:06:21;;;;;;;16.75;9.25;;;2.80;99.90;;;;;;6010247;23;20030;-83
2021/11/22 08:08:52;;;;;;;20.38;10.48;;;2.90;99.90;;;;;;6059384;23;20019;-83
2021/11/22 08:13:53;;;;;;;20.25;10.90;;;2.80;99.90;;;;;;6012280;23;20032;-84
2021/11/22 08:16:21;;;;;;;18.92;10.25;;;2.80;99.90;;;;;;6031462;23;20031;-84
2021/11/22 08:18:50;;;;;;;19.85;9.70;;;2.80;99.90;;;;;;6081995;23;20035;-84
2021/11/22 08:21:17;;;;;;;15.82;10.10;;;2.90;99.90;;;;;;6053775;23;20035;-84
2021/11/22 08:23:46;;;;;;;17.88;10.32;;;2.80;99.90;;;;;;6076752;23;20033;-84
2021/11/22 08:26:13;;;;;;;14.32;8.65;;;2.80;99.90;;;;;;6060508;23;20020;-83
2021/11/22 08:28:41;;;;;;;20.20;12.35;;;2.90;99.90;;;;;;6007353;23;20031;-84
2021/11/22 08:31:09;;;;;;;20.58;9.23;;;2.80;99.90;;;;;;6032228;23;20028;-84
2021/11/22 08:33:37;;;;;;;14.48;8.50;;;2.90;99.90;;;;;;6062062;23;20419;-84
2021/11/22 08:36:05;;;;;;;25.20;13.00;;;2.90;99.90;;;;;;6064790;23;20018;-86
2021/11/22 08:38:32;;;;;;;18.20;11.07;;;2.80;99.90;;;;;;5982967;23;20042;-85
2021/11/22 08:41:03;;;;;;;11.73;8.25;;;2.80;99.90;;;;;;6064022;23;20020;-86
2021/11/22 08:43:31;;;;;;;17.07;9.50;;;3.00;99.90;;;;;;6030659;23;20347;-85
2021/11/22 08:45:59;;;;;;;21.25;9.00;;;2.90;99.90;;;;;;6006392;23;20268;-84
2021/11/22 08:48:27;;;;;;;20.00;10.13;;;2.90;99.90;;;;;;6030239;23;20479;-84
2021/11/22 08:50:55;;;;;;;14.80;9.40;;;2.90;99.90;;;;;;6006029;23;20031;-84
2021/11/22 08:53:23;;;;;;;13.90;9.13;;;2.90;99.90;;;;;;6029635;23;20024;-86
2021/11/22 08:55:51;;;;;;;13.88;9.68;;;3.00;99.90;;;;;;6031090;23;20034;-85
2021/11/22 08:58:19;;;;;;;19.55;11.50;;;3.00;99.90;;;;;;6014204;23;20051;-85
2021/11/22 09:00:47;;;;;;;14.35;10.07;;;3.00;99.90;;;;;;5960033;23;20027;-84
2021/11/22 09:03:16;;;;;;;14.80;7.82;;;3.00;99.90;;;;;;5985403;23;20452;-86
2021/11/22 09:05:45;;;;;;;15.63;8.73;;;3.00;99.90;;;;;;5960175;23;20054;-84
2021/11/22 09:08:13;;;;;;;20.35;10.80;;;3.00;99.90;;;;;;5959335;23;20023;-83
2021/11/22 09:10:41;;;;;;;19.13;9.63;;;3.00;99.90;;;;;;5959372;23;20028;-83
2021/11/22 09:13:09;;;;;;;19.42;10.00;;;3.10;99.90;;;;;;6013402;23;20027;-81
2021/11/22 09:15:40;;;;;;;20.05;12.63;;;3.20;99.90;;;;;;6008585;23;20031;-82
2021/11/22 09:18:10;;;;;;;18.80;10.10;;;3.20;99.90;;;;;;5958478;23;20047;-82
2021/11/22 09:20:38;;;;;;;21.27;11.75;;;3.30;99.90;;;;;;5982986;23;20019;-80
2021/11/22 09:23:06;;;;;;;15.50;8.73;;;3.40;99.90;;;;;;5985356;23;20352;-80
2021/11/22 09:25:35;;;;;;;21.98;9.25;;;3.40;99.90;;;;;;6015102;23;20024;-79
2021/11/22 09:28:04;;;;;;;15.48;9.02;;;3.50;99.90;;;;;;6018439;23;20019;-80
2021/11/22 09:30:32;;;;;;;18.40;10.10;;;3.50;99.90;;;;;;6012323;23;20032;-81
2021/11/22 09:33:00;;;;;;;17.60;9.73;;;3.50;99.90;;;;;;5992998;23;20027;-80
2021/11/22 09:35:28;;;;;;;17.92;9.77;;;3.50;99.90;;;;;;6007703;23;20329;-80
2021/11/22 09:37:56;;;;;;;13.55;7.30;;;3.60;99.90;;;;;;6013262;23;20024;-81
2021/11/22 09:40:24;;;;;;;16.20;11.68;;;3.60;99.90;;;;;;6016874;23;20462;-80
2021/11/22 09:42:55;;;;;;;14.10;9.07;;;3.70;99.90;;;;;;5986386;23;20044;-81
2021/11/22 09:45:27;;;;;;;9.55;7.47;;;3.80;99.90;;;;;;6018243;23;20440;-81
2021/11/22 09:48:00;;;;;;;14.43;8.75;;;3.70;99.90;;;;;;6007250;23;20031;-80
2021/11/22 09:50:30;;;;;;;14.18;7.97;;;3.80;99.90;;;;;;6042133;23;20058;-80
2021/11/22 09:52:59;;;;;;;15.05;8.05;;;3.80;99.90;;;;;;6010834;23;20019;-81
2021/11/22 09:55:31;;;;;;;13.73;6.75;;;3.70;99.90;;;;;;5988295;23;20028;-79
2021/11/22 09:58:01;;;;;;;11.75;6.70;;;3.70;99.90;;;;;;6014519;23;20024;-81
2021/11/22 10:00:35;;;;;;;16.27;9.30;;;3.70;99.90;;;;;;5992696;23;20467;-79
2021/11/22 10:03:07;;;;;;;11.88;8.18;;;3.60;99.90;;;;;;6009755;23;20030;-79
2021/11/22 10:05:37;;;;;;;13.27;8.80;;;3.70;99.90;;;;;;6016438;23;20011;-80
2021/11/22 10:08:07;;;;;;;13.02;7.32;;;3.70;99.90;;;;;;6015840;23;20020;-80
2021/11/22 10:10:37;;;;;;;14.63;7.32;;;3.70;99.90;;;;;;6009986;23;20034;-81
2021/11/22 10:13:19;;;;;;;10.55;7.28;;;3.70;99.90;;;;;;6014318;23;20035;-80
2021/11/22 10:15:48;;;;;;;13.07;7.55;;;3.80;99.90;;;;;;6010742;23;20027;-81
2021/11/22 10:18:28;;;;;;;11.20;7.25;;;3.80;99.90;;;;;;6041578;23;20027;-78
2021/11/22 10:21:03;;;;;;;22.75;10.75;;;3.80;99.90;;;;;;6045729;23;20015;-80
2021/11/22 10:23:31;;;;;;;9.13;5.28;;;3.80;99.90;;;;;;6036097;23;20027;-80
2021/11/22 10:25:59;;;;;;;12.10;7.65;;;3.80;99.90;;;;;;6042520;23;20030;-78
2021/11/22 10:28:31;;;;;;;13.25;7.57;;;3.70;99.90;;;;;;6045759;23;20015;-83
2021/11/22 10:31:05;;;;;;;17.77;9.73;;;3.70;99.90;;;;;;6016189;23;20024;-85
2021/11/22 10:33:36;;;;;;;14.93;8.93;;;3.80;99.90;;;;;;6046578;23;20020;-83
2021/11/22 10:36:11;;;;;;;14.73;7.70;;;3.70;99.90;;;;;;6022903;23;20016;-86
2021/11/22 10:38:44;;;;;;;12.27;6.88;;;3.70;99.90;;;;;;6041707;23;20031;-86
2021/11/22 10:41:39;;;;;;;13.48;8.15;;;3.80;99.90;;;;;;6046215;23;20019;-86
2021/11/22 10:44:11;;;;;;;15.93;8.05;;;3.80;99.90;;;;;;5971862;23;20351;-88
2021/11/22 10:46:51;;;;;;;10.70;7.22;;;3.90;99.90;;;;;;6013201;23;20039;-88
2021/11/22 10:49:30;;;;;;;13.05;7.68;;;4.00;99.90;;;;;;6070606;23;20019;-89
2021/11/22 10:52:29;;;;;;;16.48;8.65;;;4.10;99.90;;;;;;6022215;23;20046;-89
2021/11/22 10:54:59;;;;;;;17.30;8.50;;;4.10;99.90;;;;;;6038968;23;20019;-85
2021/11/22 10:57:35;;;;;;;17.58;7.50;;;4.10;99.90;;;;;;6045599;23;20016;-87
2021/11/22 11:00:21;;;;;;;13.82;10.23;;;4.10;99.90;;;;;;6013301;23;20027;-87
2021/11/22 11:02:54;;;;;;;18.65;9.25;;;4.20;99.90;;;;;;6011631;23;20447;-90
2021/11/22 11:05:31;;;;;;;15.57;8.85;;;4.20;99.90;;;;;;6014443;23;20318;-90
2021/11/22 11:08:08;;;;;;;12.48;7.32;;;4.20;99.90;;;;;;6071442;23;20026;-88
2021/11/22 11:10:39;;;;;;;15.93;10.20;;;4.20;99.90;;;;;;6011381;23;20023;-88
2021/11/22 11:13:49;;;;;;;15.35;8.82;;;4.20;99.90;;;;;;6017555;23;20027;-88
2021/11/22 11:16:17;;;;;;;11.60;9.38;;;4.30;99.90;;;;;;6036983;23;20026;-88
2021/11/22 11:18:57;;;;;;;20.63;10.10;;;4.30;99.90;;;;;;6041377;23;20459;-89
2021/11/22 11:21:28;;;;;;;18.15;7.75;;;4.40;99.90;;;;;;6012593;23;20019;-86
2021/11/22 11:23:57;;;;;;;12.15;8.02;;;4.30;99.90;;;;;;6022054;23;20034;-86
2021/11/22 11:26:30;;;;;;;16.75;9.35;;;4.30;99.90;;;;;;6011863;23;20035;-87
2021/11/22 11:28:58;;;;;;;14.95;9.00;;;4.20;99.90;;;;;;6036483;23;20023;-87
2021/11/22 11:31:27;;;;;;;15.27;7.57;;;4.10;99.90;;;;;;6061290;23;20019;-86
2021/11/22 11:33:55;;;;;;;14.70;8.35;;;4.20;99.90;;;;;;6038363;23;20020;-87
2021/11/22 11:36:41;;;;;;;10.85;8.10;;;4.30;99.90;;;;;;6008147;23;20020;-86
2021/11/22 11:39:24;;;;;;;16.42;8.73;;;4.30;99.90;;;;;;6054051;23;20444;-86
2021/11/22 11:42:08;;;;;;;13.10;9.60;;;4.30;99.90;;;;;;6003289;23;20028;-86
2021/11/22 11:45:04;;;;;;;15.60;7.75;;;4.30;99.90;;;;;;5962037;23;20023;-88
2021/11/22 11:48:09;;;;;;;14.80;8.48;;;4.30;99.90;;;;;;5983814;23;20039;-87
2021/11/22 11:50:41;;;;;;;10.93;8.63;;;4.30;99.90;;;;;;5988512;23;20472;-86
2021/11/22 11:53:22;;;;;;;10.45;6.82;;;4.20;99.90;;;;;;6018720;23;20027;-87
2021/11/22 11:56:11;;;;;;;11.20;7.70;;;4.20;99.90;;;;;;5947317;23;20353;-88
2021/11/22 11:58:41;;;;;;;15.43;7.38;;;4.20;99.90;;;;;;6012148;23;20031;-86
2021/11/22 12:01:17;;;;;;;16.48;9.35;;;4.20;99.90;;;;;;6018647;23;20019;-87
2021/11/22 12:04:09;;;;;;;13.48;10.43;;;4.20;99.90;;;;;;5983445;23;20479;-86
2021/11/22 12:06:53;;;;;;;11.95;8.60;;;4.30;99.90;;;;;;6011529;23;20637;-84
2021/11/22 12:09:36;;;;;;;14.68;7.05;;;4.40;99.90;;;;;;5983333;23;20026;-83
2021/11/22 12:12:13;;;;;;;12.32;7.85;;;4.40;99.90;;;;;;5968019;23;20035;-84
2021/11/22 12:14:55;;;;;;;11.25;7.32;;;4.50;99.90;;;;;;5960054;23;20032;-84
2021/11/22 12:17:39;;;;;;;13.27;7.93;;;4.40;99.90;;;;;;5959265;23;20016;-82
2021/11/22 12:20:37;;;;;;;10.45;7.13;;;4.40;99.90;;;;;;6018375;23;20019;-83
2021/11/22 12:23:20;;;;;;;10.57;6.90;;;4.30;99.90;;;;;;6007518;23;20032;-83
2021/11/22 12:25:52;;;;;;;;;;;4.40;99.90;;;;;;6016965;23;20027;-83
2021/11/22 12:28:23;;;;;;;;;;;4.30;99.90;;;;;;5984830;23;20350;-82
2021/11/22 12:31:01;;;;;;;14.40;8.32;;;4.20;99.90;;;;;;5983258;23;19926;-84
2021/11/22 12:33:31;;;;;;;13.30;7.07;;;4.20;99.90;;;;;;6017603;23;20471;-84
2021/11/22 12:36:07;;;;;;;9.43;7.25;;;4.20;99.90;;;;;;6018496;23;20023;-82
2021/11/22 12:38:48;;;;;;;11.07;7.90;;;4.20;99.90;;;;;;6032442;23;20024;-83
2021/11/22 12:41:35;;;;;;;;;;;4.40;99.90;;;;;;5992649;23;20023;-84
2021/11/22 12:44:15;;;;;;;14.43;9.25;;;4.30;99.90;;;;;;6045613;23;19924;-83
2021/11/22 12:46:58;;;;;;;8.63;6.80;;;4.30;99.90;;;;;;6063695;23;20030;-85
2021/11/22 12:49:38;;;;;;;8.77;6.15;;;4.20;99.90;;;;;;6019574;23;20065;-83
2021/11/22 12:52:14;;;;;;;8.57;5.50;;;4.20;99.90;;;;;;6017184;23;20020;-83
2021/11/22 12:54:47;;;;;;;8.07;6.47;;;4.20;99.90;;;;;;6004983;23;20035;-82
2021/11/22 12:57:28;;;;;;;11.38;8.50;;;4.20;99.90;;;;;;6040438;23;20552;-84
2021/11/22 13:00:15;;;;;;;10.43;7.68;;;4.30;99.90;;;;;;6014940;23;20026;-83
2021/11/22 13:02:58;;;;;;;8.65;6.63;;;4.30;99.90;;;;;;6027694;23;20026;-83
2021/11/22 13:05:54;;;;;;;12.48;7.25;;;4.30;99.90;;;;;;6037136;23;20019;-84
2021/11/22 13:08:22;;;;;;;7.85;6.47;;;4.30;99.90;;;;;;6045492;23;20015;-84
2021/11/22 13:10:52;;;;;;;13.02;9.55;;;4.30;99.90;;;;;;6039898;23;20030;-82
2021/11/22 13:13:30;;;;;;;14.43;9.85;;;4.30;99.90;;;;;;6042924;23;20020;-83